createdAt,value
2022-10-11T00:01:09.191Z,8.45
2022-10-11T00:03:37.940Z,6.60
2022-10-11T00:06:07.437Z,8.98
2022-10-11T00:08:38.100Z,9.20
2022-10-11T00:11:08.658Z,8.05
2022-10-11T00:13:37.627Z,5.43
2022-10-11T00:16:10.283Z,5.82
2022-10-11T00:18:39.807Z,9.68
2022-10-11T00:21:11.987Z,11.00
2022-10-11T00:23:43.178Z,10.45
2022-10-11T00:28:41.623Z,5.72
2022-10-11T00:31:11.502Z,5.20
2022-10-11T00:33:40.135Z,10.02
2022-10-11T00:36:10.373Z,6.13
2022-10-11T00:38:39.764Z,6.15
2022-10-11T00:41:09.797Z,9.93
2022-10-11T00:43:38.523Z,11.00
2022-10-11T00:46:24.311Z,4.40
2022-10-11T00:48:58.391Z,8.23
2022-10-11T00:51:40.867Z,6.20
2022-10-11T00:54:13.522Z,7.88
2022-10-11T00:56:49.339Z,5.13
2022-10-11T00:59:25.238Z,5.88
2022-10-11T01:01:54.379Z,8.98
2022-10-11T01:04:23.011Z,4.93
2022-10-11T01:06:52.973Z,6.65
2022-10-11T01:09:22.603Z,6.82
2022-10-11T01:11:55.233Z,6.95
2022-10-11T01:14:54.085Z,6.18
2022-10-11T01:17:31.746Z,6.50
2022-10-11T01:20:37.093Z,6.38
2022-10-11T01:23:40.736Z,4.40
2022-10-11T01:26:42.608Z,7.90
2022-10-11T01:29:23.426Z,6.43
2022-10-11T01:31:58.812Z,6.25
2022-10-11T01:34:33.011Z,4.80
2022-10-11T01:37:07.363Z,5.28
2022-10-11T01:39:40.996Z,5.10
2022-10-11T01:42:13.152Z,5.13
2022-10-11T01:44:46.367Z,6.72
2022-10-11T01:47:20.972Z,7.50
2022-10-11T01:49:55.599Z,8.10
2022-10-11T01:52:24.484Z,6.35
2022-10-11T01:55:09.606Z,4.82
2022-10-11T01:57:59.916Z,10.48
2022-10-11T02:00:33.218Z,9.45
2022-10-11T02:03:14.805Z,5.97
2022-10-11T02:05:51.214Z,4.28
2022-10-11T02:08:26.953Z,7.07
2022-10-11T02:11:06.106Z,5.95
2022-10-11T02:13:39.935Z,7.03
2022-10-11T02:16:13.149Z,4.90
2022-10-11T02:18:48.642Z,5.18
2022-10-11T02:21:20.942Z,4.45
2022-10-11T02:23:55.022Z,9.63
2022-10-11T02:26:26.505Z,5.35
2022-10-11T02:29:01.292Z,4.75
2022-10-11T02:31:32.658Z,4.50
2022-10-11T02:34:11.266Z,4.82
2022-10-11T02:36:48.710Z,9.75
2022-10-11T02:39:23.388Z,8.48
2022-10-11T02:41:54.677Z,4.93
2022-10-11T02:44:31.999Z,8.68
2022-10-11T02:47:02.473Z,3.63
2022-10-11T02:49:33.716Z,9.23
2022-10-11T02:52:02.495Z,3.22
2022-10-11T02:54:31.069Z,6.30
2022-10-11T02:56:59.842Z,4.45
2022-10-11T02:59:28.436Z,4.05
2022-10-11T03:01:57.038Z,7.13
2022-10-11T03:04:25.805Z,6.20
2022-10-11T03:06:56.017Z,4.80
2022-10-11T03:09:24.781Z,6.65
2022-10-11T03:11:53.369Z,3.35
2022-10-11T03:14:22.006Z,3.58
2022-10-11T03:16:51.655Z,6.18
2022-10-11T03:19:20.365Z,6.05
2022-10-11T03:21:49.137Z,6.03
2022-10-11T03:24:19.173Z,6.10
2022-10-11T03:26:47.842Z,3.72
2022-10-11T03:29:16.492Z,4.78
2022-10-11T03:31:45.266Z,3.47
2022-10-11T03:34:14.205Z,5.57
2022-10-11T03:36:43.064Z,6.63
2022-10-11T03:39:11.677Z,6.47
2022-10-11T03:41:41.860Z,4.43
2022-10-11T03:44:10.703Z,6.55
2022-10-11T03:46:39.292Z,3.13
2022-10-11T03:49:07.830Z,6.50
2022-10-11T03:51:36.628Z,4.00
2022-10-11T03:54:05.400Z,4.97
2022-10-11T03:56:34.298Z,5.65
2022-10-11T03:59:04.431Z,4.50
2022-10-11T04:01:37.797Z,5.20
2022-10-11T04:04:07.488Z,6.35
2022-10-11T04:06:36.071Z,9.48
2022-10-11T04:09:05.252Z,7.60
2022-10-11T04:11:33.833Z,4.45
2022-10-11T04:14:03.869Z,3.85
2022-10-11T04:16:32.574Z,6.57
2022-10-11T04:19:01.203Z,5.05
2022-10-11T04:21:29.900Z,5.60
2022-10-11T04:23:58.593Z,5.07
2022-10-11T04:26:27.694Z,4.63
2022-10-11T04:28:56.408Z,5.70
2022-10-11T04:31:26.610Z,4.68
2022-10-11T04:33:55.229Z,9.27
2022-10-11T04:36:23.912Z,5.80
2022-10-11T04:38:52.662Z,5.05
2022-10-11T04:41:21.280Z,5.88
2022-10-11T04:43:50.151Z,4.47
2022-10-11T04:46:18.813Z,8.80
2022-10-11T04:48:48.880Z,8.90
2022-10-11T04:51:17.586Z,7.85
2022-10-11T04:53:46.444Z,7.85
2022-10-11T04:56:17.031Z,6.78
2022-10-11T04:58:48.319Z,7.18
2022-10-11T05:01:17.186Z,5.03
2022-10-11T05:03:45.672Z,6.60
2022-10-11T05:06:15.814Z,5.47
2022-10-11T05:08:44.549Z,6.90
2022-10-11T05:11:16.145Z,8.48
2022-10-11T05:13:45.854Z,5.72
2022-10-11T05:16:18.183Z,7.35
2022-10-11T05:18:47.035Z,7.25
2022-10-11T05:21:20.528Z,5.90
2022-10-11T05:23:51.224Z,5.78
2022-10-11T05:26:20.931Z,8.75
2022-10-11T05:28:49.765Z,6.82
2022-10-11T05:31:18.852Z,7.00
2022-10-11T05:33:47.628Z,6.68
2022-10-11T05:36:17.788Z,7.57
2022-10-11T05:38:46.598Z,9.93
2022-10-11T05:41:16.526Z,6.28
2022-10-11T05:43:46.081Z,5.25
2022-10-11T05:46:14.780Z,5.88
2022-10-11T05:48:43.501Z,6.18
2022-10-11T05:51:13.666Z,8.85
2022-10-11T05:53:43.787Z,6.18
2022-10-11T05:56:26.579Z,5.72
2022-10-11T05:58:59.949Z,6.82
2022-10-11T06:01:31.084Z,9.00
2022-10-11T06:03:59.760Z,8.10
2022-10-11T06:06:28.519Z,11.35
2022-10-11T06:08:58.766Z,5.60
2022-10-11T06:11:29.326Z,6.93
2022-10-11T06:13:59.459Z,7.07
2022-10-11T06:16:28.592Z,6.53
2022-10-11T06:18:58.310Z,7.13
2022-10-11T06:21:27.229Z,6.38
2022-10-11T06:24:01.356Z,6.63
2022-10-11T06:26:30.703Z,6.63
2022-10-11T06:28:59.844Z,7.63
2022-10-11T06:31:28.539Z,6.90
2022-10-11T06:33:57.206Z,5.03
2022-10-11T06:36:25.920Z,6.07
2022-10-11T06:38:55.131Z,5.43
2022-10-11T06:41:27.928Z,9.98
2022-10-11T06:43:57.340Z,6.32
2022-10-11T06:46:28.203Z,7.57
2022-10-11T06:48:57.288Z,6.32
2022-10-11T06:51:27.382Z,6.57
2022-10-11T06:53:57.989Z,5.78
2022-10-11T06:56:28.947Z,4.13
2022-10-11T06:58:58.908Z,5.78
2022-10-11T07:01:28.725Z,7.50
2022-10-11T07:04:00.170Z,7.72
2022-10-11T07:06:31.690Z,7.00
2022-10-11T07:09:01.816Z,5.50
2022-10-11T07:11:32.272Z,6.90
2022-10-11T07:14:04.624Z,6.60
2022-10-11T07:16:33.320Z,7.95
2022-10-11T07:19:03.164Z,6.55
2022-10-11T07:21:34.011Z,7.15
2022-10-11T07:24:03.780Z,8.05
2022-10-11T07:26:38.672Z,5.80
2022-10-11T07:29:08.262Z,6.07
2022-10-11T07:31:38.780Z,6.05
2022-10-11T07:34:07.803Z,9.40
2022-10-11T07:36:36.516Z,8.43
2022-10-11T07:39:07.311Z,8.13
2022-10-11T07:41:44.605Z,8.00
2022-10-11T07:44:14.444Z,5.13
2022-10-11T07:46:43.278Z,6.82
2022-10-11T07:49:12.096Z,11.32
2022-10-11T07:51:40.686Z,9.98
2022-10-11T07:54:09.586Z,8.65
2022-10-11T07:56:40.385Z,6.75
2022-10-11T07:59:09.131Z,6.97
2022-10-11T08:01:37.890Z,8.52
2022-10-11T08:04:07.035Z,7.30
2022-10-11T08:06:36.803Z,10.88
2022-10-11T08:09:06.984Z,7.43
2022-10-11T08:11:38.278Z,7.75
2022-10-11T08:14:11.553Z,6.80
2022-10-11T08:16:41.210Z,10.13
2022-10-11T08:19:09.958Z,12.32
2022-10-11T08:21:38.705Z,7.05
2022-10-11T08:24:08.331Z,11.15
2022-10-11T08:26:37.034Z,13.07
2022-10-11T08:29:05.747Z,9.30
2022-10-11T08:31:36.514Z,9.70
2022-10-11T08:34:06.525Z,6.78
2022-10-11T08:36:35.322Z,9.87
2022-10-11T08:39:03.934Z,12.23
2022-10-11T08:41:42.356Z,9.93
2022-10-11T08:44:52.134Z,7.43
2022-10-11T08:47:32.116Z,6.85
2022-10-11T08:50:02.087Z,10.02
2022-10-11T08:52:42.297Z,8.30
2022-10-11T08:55:20.402Z,12.87
2022-10-11T08:57:55.565Z,8.75
2022-10-11T09:00:25.692Z,8.32
2022-10-11T09:03:09.675Z,10.90
2022-10-11T09:05:53.334Z,8.88
2022-10-11T09:08:31.106Z,8.57
2022-10-11T09:11:07.444Z,9.27
2022-10-11T09:13:57.687Z,11.05
2022-10-11T09:16:36.967Z,12.38
2022-10-11T09:19:40.845Z,9.73
2022-10-11T09:22:17.212Z,12.75
2022-10-11T09:25:00.549Z,11.80
2022-10-11T09:28:00.836Z,14.40
2022-10-11T09:30:22.552Z,13.55
2022-10-11T09:33:03.242Z,12.27
2022-10-11T09:35:39.999Z,14.05
2022-10-11T09:38:15.968Z,13.90
2022-10-11T09:40:54.546Z,14.05
2022-10-11T09:43:23.302Z,12.80
2022-10-11T09:45:52.137Z,15.18
2022-10-11T09:48:24.442Z,13.65
2022-10-11T09:50:59.062Z,13.30
2022-10-11T09:53:56.580Z,17.45
2022-10-11T09:56:26.781Z,14.65
2022-10-11T09:59:21.525Z,14.03
2022-10-11T10:01:50.600Z,16.90
2022-10-11T10:04:19.347Z,20.85
2022-10-11T10:06:49.602Z,15.05
2022-10-11T10:09:26.964Z,15.03
2022-10-11T10:11:56.604Z,15.68
2022-10-11T10:14:29.000Z,18.23
2022-10-11T10:17:04.286Z,15.95
2022-10-11T10:19:44.954Z,17.27
2022-10-11T10:24:50.682Z,18.73
2022-10-11T10:27:22.619Z,20.75
2022-10-11T10:30:14.487Z,22.45
2022-10-11T10:32:51.604Z,19.38
2022-10-11T10:35:30.770Z,15.00
2022-10-11T10:38:09.752Z,21.45
2022-10-11T10:40:43.225Z,19.38
2022-10-11T10:43:18.789Z,24.27
2022-10-11T10:46:14.261Z,16.38
2022-10-11T10:49:28.415Z,16.25
2022-10-11T10:51:50.879Z,19.88
2022-10-11T10:54:33.149Z,24.38
2022-10-11T10:57:05.788Z,19.55
2022-10-11T10:59:52.687Z,23.27
2022-10-11T11:02:41.453Z,20.17
2022-10-11T11:05:21.230Z,21.23
2022-10-11T11:07:55.907Z,23.77
2022-10-11T11:10:32.082Z,19.10
2022-10-11T11:13:16.243Z,20.42
2022-10-11T11:15:50.222Z,26.63
2022-10-11T11:18:30.048Z,20.73
2022-10-11T11:21:15.069Z,27.48
2022-10-11T11:23:52.433Z,21.88
2022-10-11T11:26:29.428Z,19.95
2022-10-11T11:29:21.010Z,20.52
2022-10-11T11:32:16.009Z,16.00
2022-10-11T11:34:49.313Z,17.80
2022-10-11T11:37:28.093Z,17.35
2022-10-11T11:40:02.973Z,17.67
2022-10-11T11:42:40.311Z,18.45
2022-10-11T11:45:18.998Z,15.40
2022-10-11T11:47:56.725Z,15.80
2022-10-11T11:50:28.627Z,19.10
2022-10-11T11:53:04.961Z,17.40
2022-10-11T11:55:45.518Z,19.48
2022-10-11T11:58:29.863Z,22.60
2022-10-11T12:01:06.980Z,21.55
2022-10-11T12:03:41.884Z,16.13
2022-10-11T12:06:27.493Z,17.15
2022-10-11T12:09:06.665Z,17.38
2022-10-11T12:11:58.102Z,21.40
2022-10-11T12:14:37.325Z,17.67
2022-10-11T12:17:12.946Z,19.20
2022-10-11T12:19:44.997Z,21.85
2022-10-11T12:22:38.023Z,21.23
2022-10-11T12:25:42.502Z,18.38
2022-10-11T12:28:49.817Z,16.52
2022-10-11T12:31:23.946Z,16.95
2022-10-11T12:34:04.146Z,19.27
2022-10-11T12:36:40.397Z,19.03
2022-10-11T12:39:52.047Z,18.50
2022-10-11T12:42:31.001Z,21.50
2022-10-11T12:45:36.266Z,17.27
2022-10-11T12:48:23.238Z,14.57
2022-10-11T12:51:07.444Z,19.65
2022-10-11T12:54:26.039Z,15.45
2022-10-11T12:57:18.320Z,13.95
2022-10-11T12:59:47.684Z,16.38
2022-10-11T13:02:29.245Z,15.40
2022-10-11T13:05:09.783Z,16.63
2022-10-11T13:07:42.405Z,18.10
2022-10-11T13:10:16.325Z,18.77
2022-10-11T13:12:49.328Z,17.65
2022-10-11T13:15:22.408Z,13.68
2022-10-11T13:17:54.326Z,14.68
2022-10-11T13:20:28.381Z,16.52
2022-10-11T13:22:58.187Z,18.33
2022-10-11T13:25:29.179Z,18.27
2022-10-11T13:30:30.962Z,13.90
2022-10-11T13:33:01.506Z,14.07
2022-10-11T13:35:34.564Z,18.73
2022-10-11T13:38:04.486Z,12.60
2022-10-11T13:40:33.687Z,10.65
2022-10-11T13:43:07.546Z,15.40
2022-10-11T13:45:39.346Z,16.08
2022-10-11T13:48:15.588Z,14.38
2022-10-11T13:50:52.626Z,12.07
2022-10-11T13:53:25.655Z,11.98
2022-10-11T13:55:58.364Z,11.57
2022-10-11T13:58:31.768Z,12.95
2022-10-11T14:01:03.626Z,14.55
2022-10-11T14:03:40.909Z,18.77
2022-10-11T14:06:11.541Z,16.75
2022-10-11T14:08:46.995Z,14.05
2022-10-11T14:11:16.575Z,12.05
2022-10-11T14:13:50.089Z,15.48
2022-10-11T14:16:31.222Z,18.67
2022-10-11T14:21:54.903Z,14.50
2022-10-11T14:24:23.987Z,13.63
2022-10-11T14:26:54.524Z,11.52
2022-10-11T14:29:27.303Z,10.85
2022-10-11T14:32:00.466Z,10.23
2022-10-11T14:34:29.607Z,13.02
2022-10-11T14:36:59.872Z,11.40
2022-10-11T14:39:31.290Z,16.88
2022-10-11T14:42:00.071Z,11.35
2022-10-11T14:44:28.805Z,16.52
2022-10-11T14:46:57.592Z,12.50
2022-10-11T14:49:28.525Z,12.52
2022-10-11T14:54:30.004Z,11.27
2022-10-11T14:57:01.770Z,9.25
2022-10-11T14:59:35.050Z,12.13
2022-10-11T15:02:04.600Z,10.95
2022-10-11T15:04:33.392Z,13.25
2022-10-11T15:07:02.171Z,14.75
2022-10-11T15:09:32.939Z,11.85
2022-10-11T15:12:01.705Z,11.68
2022-10-11T15:14:30.241Z,14.52
2022-10-11T15:16:59.053Z,13.18
2022-10-11T15:19:27.713Z,9.93
2022-10-11T15:21:56.545Z,9.45
2022-10-11T15:24:25.367Z,11.32
2022-10-11T15:26:55.645Z,8.63
2022-10-11T15:29:24.523Z,11.53
2022-10-11T15:31:53.445Z,10.18
2022-10-11T15:34:22.241Z,13.63
2022-10-11T15:36:51.525Z,8.95
2022-10-11T15:39:26.309Z,14.32
2022-10-11T15:41:56.645Z,9.30
2022-10-11T15:44:28.252Z,12.32
2022-10-11T15:46:56.946Z,9.02
2022-10-11T15:49:25.607Z,16.88
2022-10-11T15:51:54.261Z,14.18
2022-10-11T15:54:22.818Z,7.93
2022-10-11T15:56:51.403Z,11.00
2022-10-11T15:59:21.349Z,8.70
2022-10-11T16:01:50.066Z,7.18
2022-10-11T16:04:18.701Z,8.07
2022-10-11T16:06:47.259Z,8.75
2022-10-11T16:09:15.739Z,7.38
2022-10-11T16:11:44.352Z,11.52
2022-10-11T16:14:13.171Z,8.93
2022-10-11T16:16:43.255Z,13.23
2022-10-11T16:19:12.266Z,11.65
2022-10-11T16:21:40.904Z,9.70
2022-10-11T16:24:09.929Z,9.57
2022-10-11T16:26:38.524Z,12.73
2022-10-11T16:29:07.166Z,9.13
2022-10-11T16:31:35.616Z,16.75
2022-10-11T16:34:05.799Z,31.52
2022-10-11T16:36:36.519Z,22.07
2022-10-11T16:39:09.597Z,13.93
2022-10-11T16:41:38.680Z,15.73
2022-10-11T16:44:07.763Z,12.98
2022-10-11T16:46:36.830Z,13.73
2022-10-11T16:49:07.123Z,16.60
2022-10-11T16:51:35.941Z,9.80
2022-10-11T16:54:04.641Z,14.27
2022-10-11T16:56:37.411Z,10.10
2022-10-11T16:59:08.676Z,9.05
2022-10-11T17:01:37.844Z,12.95
2022-10-11T17:04:08.379Z,15.43
2022-10-11T17:06:38.822Z,10.13
2022-10-11T17:09:07.906Z,8.38
2022-10-11T17:11:36.582Z,12.60
2022-10-11T17:14:07.434Z,13.25
2022-10-11T17:16:36.901Z,11.77
2022-10-11T17:19:05.665Z,9.60
2022-10-11T17:21:36.066Z,11.52
2022-10-11T17:24:05.207Z,15.85
2022-10-11T17:26:34.244Z,19.55
2022-10-11T17:29:03.130Z,14.98
2022-10-11T17:31:32.129Z,18.13
2022-10-11T17:34:01.491Z,18.30
2022-10-11T17:36:34.776Z,18.27
2022-10-11T17:39:08.983Z,15.70
2022-10-11T17:41:37.906Z,11.98
2022-10-11T17:44:06.962Z,14.52
2022-10-11T17:46:35.636Z,14.23
2022-10-11T17:49:08.036Z,15.55
2022-10-11T17:51:38.038Z,13.30
2022-10-11T17:54:12.854Z,9.65
2022-10-11T17:56:43.130Z,13.80
2022-10-11T17:59:17.236Z,19.08
2022-10-11T18:01:46.184Z,13.95
2022-10-11T18:04:17.019Z,11.90
2022-10-11T18:06:47.089Z,13.25
2022-10-11T18:09:18.729Z,16.50
2022-10-11T18:11:47.911Z,12.48
2022-10-11T18:14:16.609Z,17.27
2022-10-11T18:16:45.431Z,13.13
2022-10-11T18:19:15.325Z,10.60
2022-10-11T18:21:44.045Z,16.63
2022-10-11T18:24:16.528Z,17.40
2022-10-11T18:26:47.705Z,13.38
2022-10-11T18:31:44.866Z,16.50
2022-10-11T18:34:15.974Z,8.15
2022-10-11T18:39:15.331Z,14.02
2022-10-11T18:41:45.964Z,15.00
2022-10-11T18:44:16.986Z,13.98
2022-10-11T18:49:14.830Z,19.25
2022-10-11T18:51:44.034Z,16.02
2022-10-11T18:54:20.039Z,19.92
2022-10-11T18:56:51.488Z,12.52
2022-10-11T18:59:20.525Z,17.10
2022-10-11T19:01:52.447Z,17.08
2022-10-11T19:04:21.716Z,17.02
2022-10-11T19:06:53.462Z,15.75
2022-10-11T19:09:24.005Z,17.95
2022-10-11T19:11:55.587Z,12.55
2022-10-11T19:14:27.073Z,11.02
2022-10-11T19:16:56.531Z,12.15
2022-10-11T19:19:27.266Z,11.27
2022-10-11T19:21:56.194Z,15.07
2022-10-11T19:24:27.248Z,21.00
2022-10-11T19:29:31.816Z,13.18
2022-10-11T19:32:03.193Z,15.95
2022-10-11T19:34:32.931Z,9.80
2022-10-11T19:37:03.528Z,15.65
2022-10-11T19:39:32.827Z,13.57
2022-10-11T19:42:04.584Z,17.38
2022-10-11T19:44:37.170Z,11.13
2022-10-11T19:47:08.362Z,13.68
2022-10-11T19:49:36.892Z,12.70
2022-10-11T19:52:05.544Z,16.27
2022-10-11T19:54:34.122Z,14.02
2022-10-11T19:57:04.363Z,13.32
2022-10-11T19:59:32.939Z,16.30
2022-10-11T20:02:01.511Z,13.82
2022-10-11T20:07:19.003Z,11.48
2022-10-11T20:09:47.504Z,13.48
2022-10-11T20:12:17.530Z,13.50
2022-10-11T20:14:46.111Z,19.23
2022-10-11T20:17:14.801Z,12.27
2022-10-11T20:19:43.378Z,11.23
2022-10-11T20:22:12.229Z,13.23
2022-10-11T20:24:42.307Z,17.98
2022-10-11T20:27:10.997Z,14.77
2022-10-11T20:29:40.947Z,17.90
2022-10-11T20:32:10.547Z,17.80
2022-10-11T20:34:39.724Z,14.52
2022-10-11T20:37:08.355Z,18.45
2022-10-11T20:39:37.154Z,15.63
2022-10-11T20:42:05.794Z,20.70
2022-10-11T20:44:34.427Z,18.63
2022-10-11T20:47:04.560Z,16.15
2022-10-11T20:49:33.175Z,13.32
2022-10-11T20:52:01.726Z,23.48
2022-10-11T20:54:30.872Z,16.73
2022-10-11T20:57:00.444Z,19.73
2022-10-11T20:59:29.239Z,21.70
2022-10-11T21:01:58.081Z,17.92
2022-10-11T21:04:28.090Z,19.48
2022-10-11T21:06:56.737Z,16.10
2022-10-11T21:09:25.556Z,22.88
2022-10-11T21:11:54.246Z,19.52
2022-10-11T21:14:22.923Z,20.77
2022-10-11T21:16:51.507Z,22.05
2022-10-11T21:19:20.109Z,11.70
2022-10-11T21:21:53.732Z,25.27
2022-10-11T21:24:23.139Z,18.52
2022-10-11T21:26:52.031Z,18.90
2022-10-11T21:29:21.889Z,22.87
2022-10-11T21:31:50.558Z,20.45
2022-10-11T21:34:19.162Z,15.18
2022-10-11T21:36:47.826Z,21.52
2022-10-11T21:39:17.883Z,21.25
2022-10-11T21:41:46.862Z,22.57
2022-10-11T21:44:15.974Z,22.77
2022-10-11T21:49:33.347Z,27.52
2022-10-11T21:52:02.016Z,16.05
2022-10-11T21:54:32.161Z,19.52
2022-10-11T21:57:00.877Z,24.00
2022-10-11T21:59:29.447Z,25.40
2022-10-11T22:02:01.846Z,23.23
2022-10-11T22:04:30.974Z,21.20
2022-10-11T22:06:59.706Z,19.73
2022-10-11T22:09:30.025Z,28.95
2022-10-11T22:12:00.324Z,23.55
2022-10-11T22:14:29.269Z,18.17
2022-10-11T22:16:58.494Z,29.65
2022-10-11T22:19:27.284Z,29.23
2022-10-11T22:21:55.944Z,16.00
2022-10-11T22:24:24.607Z,23.88
2022-10-11T22:26:53.204Z,20.33
2022-10-11T22:29:25.355Z,26.08
2022-10-11T22:31:54.153Z,19.38
2022-10-11T22:34:22.730Z,24.50
2022-10-11T22:36:51.459Z,29.17
2022-10-11T22:39:20.124Z,24.55
2022-10-11T22:41:48.891Z,22.85
2022-10-11T22:44:17.679Z,21.88
2022-10-11T22:46:47.880Z,22.38
2022-10-11T22:49:16.732Z,22.08
2022-10-11T22:51:45.824Z,23.27
2022-10-11T22:54:14.689Z,28.42
2022-10-11T22:56:43.372Z,24.63
2022-10-11T22:59:12.146Z,25.15
2022-10-11T23:01:40.893Z,25.10
2022-10-11T23:04:11.048Z,23.10
2022-10-11T23:06:39.784Z,14.03
2022-10-11T23:09:08.615Z,25.52
2022-10-11T23:11:37.288Z,20.08
2022-10-11T23:14:06.152Z,21.35
2022-10-11T23:16:34.844Z,28.80
2022-10-11T23:19:03.483Z,31.45
2022-10-11T23:21:33.632Z,25.30
2022-10-11T23:24:02.236Z,21.47
2022-10-11T23:26:30.942Z,28.00
2022-10-11T23:28:59.670Z,21.98
2022-10-11T23:31:28.473Z,22.50
2022-10-11T23:33:57.182Z,18.20
2022-10-11T23:36:27.506Z,27.42
2022-10-11T23:38:58.992Z,27.65
2022-10-11T23:41:29.786Z,20.23
2022-10-11T23:43:59.370Z,22.77
2022-10-11T23:46:28.024Z,21.55
2022-10-11T23:48:56.739Z,21.85
2022-10-11T23:51:25.518Z,28.05
2022-10-11T23:53:54.493Z,16.92
2022-10-11T23:56:24.951Z,14.15
2022-10-11T23:58:53.686Z,25.52
